Time;durP1;ratioP1;P1;durP2;ratioP2;P2;SDS_P1;SDS_P2;PMS_P1;PMS_P2;Temp;Humidity;BMP_temperature;BMP_pressure;BME280_temperature;BME280_humidity;BME280_pressure;Samples;Min_cycle;Max_cycle;Signal;HPM_P1;HPM_P2
2022/06/29 00:00:43;;;;;;;5.55;2.40;;;;;;;;;;5049470;28;20115;-80
2022/06/29 00:03:09;;;;;;;7.07;2.25;;;;;;;;;;5066623;28;20039;-80
2022/06/29 00:05:35;;;;;;;8.38;1.92;;;;;;;;;;5067559;28;20016;-80
2022/06/29 00:08:00;;;;;;;5.53;2.25;;;;;;;;;;5037745;28;20035;-80
2022/06/29 00:10:25;;;;;;;7.32;2.55;;;;;;;;;;5048404;28;20071;-79
2022/06/29 00:12:51;;;;;;;6.20;2.13;;;;;;;;;;5031439;28;20044;-80
2022/06/29 00:15:17;;;;;;;9.95;2.13;;;;;;;;;;5058694;28;20395;-80
2022/06/29 00:17:42;;;;;;;4.72;1.92;;;;;;;;;;5062830;28;20079;-81
2022/06/29 00:20:10;;;;;;;5.13;1.92;;;;;;;;;;5031458;28;20033;-80
2022/06/29 00:22:35;;;;;;;4.70;2.20;;;;;;;;;;5057980;28;20052;-81
2022/06/29 00:25:01;;;;;;;6.85;2.20;;;;;;;;;;5022960;28;20022;-79
2022/06/29 00:27:26;;;;;;;5.80;1.98;;;;;;;;;;5045464;28;21028;-80
2022/06/29 00:29:52;;;;;;;6.95;2.40;;;;;;;;;;5028893;28;20028;-80
2022/06/29 00:32:17;;;;;;;3.80;1.70;;;;;;;;;;5024377;28;20064;-80
2022/06/29 00:34:43;;;;;;;7.60;2.00;;;;;;;;;;5063179;28;20036;-80
2022/06/29 00:37:08;;;;;;;6.22;1.90;;;;;;;;;;5031215;28;20055;-80
2022/06/29 00:39:33;;;;;;;5.63;1.95;;;;;;;;;;5062906;28;20380;-80
2022/06/29 00:41:59;;;;;;;10.43;2.38;;;;;;;;;;5041812;28;20044;-78
2022/06/29 00:44:25;;;;;;;4.05;1.58;;;;;;;;;;5055582;28;20039;-81
2022/06/29 00:46:50;;;;;;;7.68;2.75;;;;;;;;;;5048192;28;20496;-79
2022/06/29 00:49:17;;;;;;;7.65;2.08;;;;;;;;;;5047023;28;20029;-80
2022/06/29 00:51:45;;;;;;;4.47;2.20;;;;;;;;;;5044668;28;20062;-79
2022/06/29 00:54:23;;;;;;;6.30;2.28;;;;;;;;;;5010055;28;20529;-80
2022/06/29 00:56:48;;;;;;;5.32;2.13;;;;;;;;;;5035166;28;20078;-80
2022/06/29 00:59:18;;;;;;;6.88;2.13;;;;;;;;;;5013675;28;20846;-80
2022/06/29 01:01:43;;;;;;;6.07;2.42;;;;;;;;;;5033668;28;20052;-79
2022/06/29 01:04:09;;;;;;;4.78;1.95;;;;;;;;;;5018665;28;20059;-80
2022/06/29 01:06:34;;;;;;;4.80;2.33;;;;;;;;;;5048614;28;20115;-81
2022/06/29 01:09:00;;;;;;;5.03;2.22;;;;;;;;;;5019189;28;20033;-80
2022/06/29 01:11:25;;;;;;;8.95;2.55;;;;;;;;;;5060678;28;20036;-80
2022/06/29 01:13:52;;;;;;;4.95;2.10;;;;;;;;;;5047968;28;20108;-80
2022/06/29 01:16:17;;;;;;;5.70;2.17;;;;;;;;;;5031813;28;20542;-81
2022/06/29 01:18:42;;;;;;;6.05;3.45;;;;;;;;;;5044374;28;20130;-81
2022/06/29 01:21:11;;;;;;;4.82;2.55;;;;;;;;;;5031988;28;20052;-81
2022/06/29 01:23:36;;;;;;;7.28;2.83;;;;;;;;;;5044257;28;20032;-79
2022/06/29 01:26:08;;;;;;;11.15;2.50;;;;;;;;;;4998278;28;20186;-80
2022/06/29 01:28:34;;;;;;;7.30;2.47;;;;;;;;;;5015780;28;20602;-79
2022/06/29 01:30:59;;;;;;;6.88;2.88;;;;;;;;;;5046519;28;20119;-80
2022/06/29 01:33:25;;;;;;;4.88;2.70;;;;;;;;;;5046267;28;20032;-79
2022/06/29 01:35:50;;;;;;;8.70;2.80;;;;;;;;;;5031548;28;20025;-80
2022/06/29 01:38:17;;;;;;;4.57;2.65;;;;;;;;;;5048798;28;20033;-80
2022/06/29 01:40:42;;;;;;;4.43;2.65;;;;;;;;;;5061902;28;20241;-81
2022/06/29 01:43:08;;;;;;;9.63;3.53;;;;;;;;;;5046183;28;20072;-80
2022/06/29 01:45:33;;;;;;;11.88;3.55;;;;;;;;;;5032113;28;20035;-80
2022/06/29 01:47:58;;;;;;;6.63;3.08;;;;;;;;;;5048935;28;20063;-80
2022/06/29 01:50:24;;;;;;;6.43;3.17;;;;;;;;;;5048024;28;20056;-80
2022/06/29 01:52:50;;;;;;;9.60;3.40;;;;;;;;;;5048925;28;20041;-81
2022/06/29 01:55:15;;;;;;;6.43;3.03;;;;;;;;;;5031200;28;20028;-79
2022/06/29 01:57:40;;;;;;;6.00;3.10;;;;;;;;;;5030182;28;20059;-80
2022/06/29 02:00:06;;;;;;;6.28;3.85;;;;;;;;;;5046112;28;20095;-81
2022/06/29 02:02:32;;;;;;;4.50;3.00;;;;;;;;;;5031255;28;20029;-79
2022/06/29 02:04:57;;;;;;;8.50;3.67;;;;;;;;;;5045767;28;20052;-80
2022/06/29 02:07:22;;;;;;;5.20;3.00;;;;;;;;;;5064109;28;20065;-79
2022/06/29 02:09:48;;;;;;;14.82;3.53;;;;;;;;;;5063364;28;20056;-80
2022/06/29 02:12:13;;;;;;;5.50;3.33;;;;;;;;;;5060115;28;20510;-79
2022/06/29 02:14:38;;;;;;;6.97;3.45;;;;;;;;;;5047678;28;20542;-80
2022/06/29 02:17:04;;;;;;;10.00;4.00;;;;;;;;;;5038578;28;20061;-79
2022/06/29 02:19:30;;;;;;;6.90;3.83;;;;;;;;;;5027229;28;20164;-80
2022/06/29 02:21:56;;;;;;;8.85;3.58;;;;;;;;;;5042516;28;20025;-80
2022/06/29 02:24:21;;;;;;;6.18;3.42;;;;;;;;;;5039992;28;20441;-80
2022/06/29 02:26:46;;;;;;;7.20;3.65;;;;;;;;;;5030306;28;20070;-79
2022/06/29 02:29:12;;;;;;;9.77;3.95;;;;;;;;;;5045118;28;20033;-80
2022/06/29 02:37:05;;;;;;;7.43;4.05;;;;;;;;;;5024751;28;20024;-80
2022/06/29 02:39:30;;;;;;;15.45;4.45;;;;;;;;;;5030701;28;20445;-81
2022/06/29 02:41:56;;;;;;;6.28;4.15;;;;;;;;;;5059301;28;20120;-80
2022/06/29 02:44:21;;;;;;;9.95;4.20;;;;;;;;;;5045294;28;20048;-81
2022/06/29 02:46:46;;;;;;;10.13;4.55;;;;;;;;;;5045998;28;20120;-79
2022/06/29 02:49:12;;;;;;;6.78;4.20;;;;;;;;;;5030508;28;20139;-79
2022/06/29 02:51:37;;;;;;;8.07;4.32;;;;;;;;;;5039354;28;20063;-80
2022/06/29 02:54:02;;;;;;;13.60;5.35;;;;;;;;;;5018443;28;20057;-80
2022/06/29 02:56:28;;;;;;;12.50;5.15;;;;;;;;;;5028081;28;20059;-80
2022/06/29 02:58:53;;;;;;;9.80;4.82;;;;;;;;;;5043827;28;20078;-80
2022/06/29 03:01:19;;;;;;;7.68;4.63;;;;;;;;;;5030274;28;20537;-80
2022/06/29 03:03:45;;;;;;;6.20;4.47;;;;;;;;;;4996950;28;20137;-80
2022/06/29 03:06:10;;;;;;;10.15;5.32;;;;;;;;;;5011544;28;20044;-80
2022/06/29 03:08:36;;;;;;;6.97;4.45;;;;;;;;;;5028997;28;20032;-80
2022/06/29 03:11:02;;;;;;;6.25;4.50;;;;;;;;;;5060635;28;20437;-80
2022/06/29 03:13:28;;;;;;;8.38;4.43;;;;;;;;;;5044168;28;20029;-79
2022/06/29 03:15:54;;;;;;;9.60;4.80;;;;;;;;;;5021590;28;20030;-80
2022/06/29 03:18:19;;;;;;;9.23;5.22;;;;;;;;;;5043411;28;20495;-79
2022/06/29 03:20:44;;;;;;;8.68;4.78;;;;;;;;;;5058597;28;20112;-80
2022/06/29 03:23:10;;;;;;;8.05;5.00;;;;;;;;;;5045534;28;20052;-80
2022/06/29 03:25:35;;;;;;;12.63;5.30;;;;;;;;;;5061331;28;20088;-80
2022/06/29 03:28:01;;;;;;;7.85;5.50;;;;;;;;;;5016905;28;20255;-80
2022/06/29 03:30:26;;;;;;;13.43;6.30;;;;;;;;;;5020561;28;20054;-81
2022/06/29 03:32:52;;;;;;;11.27;6.47;;;;;;;;;;5026436;28;20075;-79
2022/06/29 03:35:17;;;;;;;9.65;5.80;;;;;;;;;;5027099;28;20450;-79
2022/06/29 03:37:42;;;;;;;15.05;5.65;;;;;;;;;;5038307;28;20087;-81
2022/06/29 03:40:08;;;;;;;8.05;5.57;;;;;;;;;;5022034;28;20127;-80
2022/06/29 03:42:34;;;;;;;6.60;5.50;;;;;;;;;;5039559;28;20052;-80
2022/06/29 03:44:59;;;;;;;9.10;5.22;;;;;;;;;;5044178;28;20048;-80
2022/06/29 03:47:25;;;;;;;9.30;5.57;;;;;;;;;;5006919;28;20071;-80
2022/06/29 03:49:50;;;;;;;11.82;6.30;;;;;;;;;;5045733;28;20115;-79
2022/06/29 03:52:16;;;;;;;12.35;6.40;;;;;;;;;;5014293;28;20032;-80
2022/06/29 03:54:41;;;;;;;8.52;5.43;;;;;;;;;;5046737;28;20133;-80
2022/06/29 03:57:06;;;;;;;14.10;7.60;;;;;;;;;;5024748;28;20051;-80
2022/06/29 03:59:32;;;;;;;6.85;5.93;;;;;;;;;;5029963;28;20377;-81
2022/06/29 04:01:58;;;;;;;7.95;5.75;;;;;;;;;;5030929;28;20036;-79
2022/06/29 04:04:23;;;;;;;12.05;6.60;;;;;;;;;;5010250;28;20484;-81
2022/06/29 04:06:48;;;;;;;8.00;5.88;;;;;;;;;;5049542;28;20076;-80
2022/06/29 04:09:14;;;;;;;11.00;6.40;;;;;;;;;;5058863;28;20048;-80
2022/06/29 04:11:54;;;;;;;11.68;6.20;;;;;;;;;;5024782;28;20067;-78
2022/06/29 04:14:21;;;;;;;9.40;6.82;;;;;;;;;;5024456;28;20029;-74
2022/06/29 04:16:47;;;;;;;10.35;7.03;;;;;;;;;;5037064;28;20033;-75
2022/06/29 04:19:12;;;;;;;11.02;6.57;;;;;;;;;;5053373;28;20077;-76
2022/06/29 04:21:38;;;;;;;10.02;6.72;;;;;;;;;;5055934;28;20037;-76
2022/06/29 04:24:03;;;;;;;10.02;7.03;;;;;;;;;;5055849;28;21548;-76
2022/06/29 04:26:28;;;;;;;7.18;6.40;;;;;;;;;;5039729;28;20025;-74
2022/06/29 04:28:54;;;;;;;7.97;6.53;;;;;;;;;;5055278;28;20117;-74
2022/06/29 04:31:19;;;;;;;9.43;7.60;;;;;;;;;;5058442;28;20059;-74
2022/06/29 04:33:44;;;;;;;7.45;6.45;;;;;;;;;;5053569;28;20461;-81
2022/06/29 04:36:10;;;;;;;15.50;7.68;;;;;;;;;;5017301;28;20171;-80
2022/06/29 04:38:35;;;;;;;11.23;7.72;;;;;;;;;;5033187;28;20049;-80
2022/06/29 04:41:01;;;;;;;10.00;7.30;;;;;;;;;;5049692;28;20056;-79
2022/06/29 04:43:29;;;;;;;10.48;7.32;;;;;;;;;;5034055;28;20052;-80
2022/06/29 04:48:40;;;;;;;9.80;8.48;;;;;;;;;;5035565;28;20051;-80
2022/06/29 04:51:11;;;;;;;12.73;7.85;;;;;;;;;;4998859;28;20026;-79
2022/06/29 04:53:36;;;;;;;13.93;8.23;;;;;;;;;;5017707;28;20036;-81
2022/06/29 04:56:01;;;;;;;11.48;7.80;;;;;;;;;;5054283;28;20043;-80
2022/06/29 04:58:27;;;;;;;9.95;8.35;;;;;;;;;;5054580;28;20098;-79
2022/06/29 05:00:52;;;;;;;10.82;8.20;;;;;;;;;;5019706;28;20059;-80
2022/06/29 05:03:18;;;;;;;11.52;7.95;;;;;;;;;;5053343;28;20488;-81
2022/06/29 05:05:43;;;;;;;8.88;7.07;;;;;;;;;;5037040;28;20028;-80
2022/06/29 05:08:09;;;;;;;10.40;7.88;;;;;;;;;;5034562;28;20024;-78
2022/06/29 05:10:34;;;;;;;10.48;7.13;;;;;;;;;;5053572;28;20028;-80
2022/06/29 05:12:59;;;;;;;9.32;7.18;;;;;;;;;;5033040;28;20082;-79
2022/06/29 05:15:25;;;;;;;9.63;6.85;;;;;;;;;;5051734;28;20074;-80
2022/06/29 05:17:50;;;;;;;11.02;7.35;;;;;;;;;;5053498;28;20024;-79
2022/06/29 05:20:16;;;;;;;8.25;6.38;;;;;;;;;;5057328;28;20052;-80
2022/06/29 05:22:42;;;;;;;10.25;6.57;;;;;;;;;;5041781;28;20033;-79
2022/06/29 05:25:07;;;;;;;8.90;6.50;;;;;;;;;;5052698;28;20041;-79
2022/06/29 05:27:33;;;;;;;7.07;5.60;;;;;;;;;;5049514;28;20028;-79
2022/06/29 05:29:58;;;;;;;12.90;6.28;;;;;;;;;;5030642;28;20103;-79
2022/06/29 05:32:23;;;;;;;13.10;6.55;;;;;;;;;;5034645;28;20036;-79
2022/06/29 05:34:49;;;;;;;6.38;5.30;;;;;;;;;;5035713;28;20056;-79
2022/06/29 05:37:14;;;;;;;11.48;6.30;;;;;;;;;;5051164;28;20039;-80
2022/06/29 05:39:39;;;;;;;7.72;4.97;;;;;;;;;;5052850;28;20396;-80
2022/06/29 05:42:05;;;;;;;9.02;5.05;;;;;;;;;;5052200;28;20096;-80
2022/06/29 05:44:30;;;;;;;9.25;4.57;;;;;;;;;;5051475;28;20024;-79
2022/06/29 05:46:56;;;;;;;8.18;5.15;;;;;;;;;;5035571;28;20073;-79
2022/06/29 05:49:21;;;;;;;13.32;5.40;;;;;;;;;;5033536;28;20422;-80
2022/06/29 05:51:46;;;;;;;6.03;3.80;;;;;;;;;;5068671;28;20484;-79
2022/06/29 05:54:12;;;;;;;10.00;4.78;;;;;;;;;;5069841;28;20112;-79
2022/06/29 05:56:37;;;;;;;7.82;4.47;;;;;;;;;;5035191;28;20111;-80
2022/06/29 05:59:02;;;;;;;5.60;4.05;;;;;;;;;;5049646;28;20064;-80
2022/06/29 06:01:28;;;;;;;10.85;4.35;;;;;;;;;;5016142;28;20117;-79
2022/06/29 06:03:53;;;;;;;8.93;4.00;;;;;;;;;;5032698;28;20374;-80
2022/06/29 06:06:18;;;;;;;6.97;5.00;;;;;;;;;;5015173;28;20033;-80
2022/06/29 06:08:44;;;;;;;8.50;4.38;;;;;;;;;;5031842;28;20052;-79
2022/06/29 06:11:09;;;;;;;7.35;4.47;;;;;;;;;;5031461;28;20473;-81
2022/06/29 06:13:37;;;;;;;9.77;3.97;;;;;;;;;;5034297;28;20064;-80
2022/06/29 06:16:03;;;;;;;7.03;4.30;;;;;;;;;;5050973;28;20041;-80
2022/06/29 06:18:28;;;;;;;6.95;3.70;;;;;;;;;;5050771;28;20154;-80
2022/06/29 06:20:53;;;;;;;8.57;3.63;;;;;;;;;;5068987;28;20052;-80
2022/06/29 06:23:20;;;;;;;9.02;3.38;;;;;;;;;;5017442;28;20131;-80
2022/06/29 06:25:46;;;;;;;7.88;3.70;;;;;;;;;;5067699;28;20101;-80
2022/06/29 06:28:11;;;;;;;15.68;3.55;;;;;;;;;;5051647;28;20059;-80
2022/06/29 06:30:36;;;;;;;8.35;3.45;;;;;;;;;;5052225;28;20025;-80
2022/06/29 06:33:02;;;;;;;6.55;3.28;;;;;;;;;;5051887;28;20059;-80
2022/06/29 06:35:27;;;;;;;5.13;2.70;;;;;;;;;;5051653;28;20033;-79
2022/06/29 06:37:52;;;;;;;7.03;3.28;;;;;;;;;;5028808;28;20082;-80
2022/06/29 06:43:02;;;;;;;9.00;2.88;;;;;;;;;;5047672;28;20463;-80
2022/06/29 06:45:27;;;;;;;5.88;2.95;;;;;;;;;;5030885;28;20112;-80
2022/06/29 06:47:53;;;;;;;8.05;3.15;;;;;;;;;;5048593;28;20021;-81
2022/06/29 06:50:18;;;;;;;5.82;2.50;;;;;;;;;;5032516;28;20033;-80
2022/06/29 06:52:43;;;;;;;8.63;2.63;;;;;;;;;;4997096;28;20485;-79
2022/06/29 06:55:09;;;;;;;5.20;2.03;;;;;;;;;;5028435;28;20115;-79
2022/06/29 06:57:34;;;;;;;6.15;2.47;;;;;;;;;;5047917;28;20371;-79
2022/06/29 07:00:00;;;;;;;6.80;2.55;;;;;;;;;;5030171;28;20039;-80
2022/06/29 07:02:25;;;;;;;3.83;2.15;;;;;;;;;;5031614;28;20112;-81
2022/06/29 07:04:50;;;;;;;5.13;2.40;;;;;;;;;;5032497;28;20495;-81
2022/06/29 07:07:16;;;;;;;5.32;1.92;;;;;;;;;;5046712;28;20045;-80
2022/06/29 07:09:42;;;;;;;4.50;2.08;;;;;;;;;;5031347;28;20481;-79
2022/06/29 07:12:07;;;;;;;4.18;2.45;;;;;;;;;;5057474;28;20071;-80
2022/06/29 07:14:33;;;;;;;5.35;1.60;;;;;;;;;;5032502;28;20033;-80
2022/06/29 07:16:58;;;;;;;4.10;2.03;;;;;;;;;;5050086;28;20078;-80
2022/06/29 07:19:23;;;;;;;4.45;1.92;;;;;;;;;;5018755;28;20029;-80
2022/06/29 07:21:49;;;;;;;5.25;1.83;;;;;;;;;;5050252;28;20163;-80
2022/06/29 07:24:14;;;;;;;4.78;1.73;;;;;;;;;;5049913;28;20025;-79
2022/06/29 07:26:39;;;;;;;3.38;1.60;;;;;;;;;;5032803;28;20098;-79
2022/06/29 07:29:05;;;;;;;4.75;1.55;;;;;;;;;;5030270;28;20119;-79
2022/06/29 07:31:30;;;;;;;4.22;1.75;;;;;;;;;;5031015;28;20053;-80
2022/06/29 07:33:55;;;;;;;4.88;2.00;;;;;;;;;;5027479;28;20106;-80
2022/06/29 07:36:21;;;;;;;4.88;1.95;;;;;;;;;;5032367;28;20492;-80
2022/06/29 07:38:46;;;;;;;4.00;1.38;;;;;;;;;;5031640;28;20074;-80
2022/06/29 07:41:12;;;;;;;3.45;1.52;;;;;;;;;;5013514;28;20037;-80
2022/06/29 07:43:37;;;;;;;3.95;1.40;;;;;;;;;;5013795;28;20045;-79
2022/06/29 07:46:02;;;;;;;4.32;1.67;;;;;;;;;;5031098;28;20025;-81
2022/06/29 07:48:28;;;;;;;5.75;1.58;;;;;;;;;;5027916;28;20502;-78
2022/06/29 07:50:53;;;;;;;4.07;1.40;;;;;;;;;;5051519;28;20043;-81
2022/06/29 07:53:19;;;;;;;4.78;1.50;;;;;;;;;;5034080;28;20115;-79
2022/06/29 07:55:44;;;;;;;5.07;1.40;;;;;;;;;;5049326;28;20400;-81
2022/06/29 07:58:16;;;;;;;3.28;1.52;;;;;;;;;;5050900;28;20118;-79
2022/06/29 08:00:41;;;;;;;4.13;1.48;;;;;;;;;;5033261;28;20499;-79
2022/06/29 08:03:07;;;;;;;6.18;1.58;;;;;;;;;;5053911;28;20048;-80
2022/06/29 08:05:33;;;;;;;4.63;1.55;;;;;;;;;;5053838;28;20037;-80
2022/06/29 08:07:59;;;;;;;10.40;1.60;;;;;;;;;;5037883;28;20561;-79
2022/06/29 08:10:24;;;;;;;3.05;1.48;;;;;;;;;;5019949;28;20040;-81
2022/06/29 08:12:50;;;;;;;4.57;1.50;;;;;;;;;;5034267;28;20017;-80
2022/06/29 08:15:17;;;;;;;4.00;1.60;;;;;;;;;;5050021;28;20063;-79
2022/06/29 08:17:42;;;;;;;6.60;2.00;;;;;;;;;;5033655;28;20025;-81
2022/06/29 08:20:08;;;;;;;6.95;1.90;;;;;;;;;;5035135;28;20100;-80
2022/06/29 08:22:34;;;;;;;6.65;1.90;;;;;;;;;;5037673;28;20050;-81
2022/06/29 08:24:59;;;;;;;3.92;1.88;;;;;;;;;;5055373;28;20021;-80
2022/06/29 08:27:24;;;;;;;4.72;1.80;;;;;;;;;;5071559;28;20032;-80
2022/06/29 08:29:50;;;;;;;4.90;1.50;;;;;;;;;;5053541;28;20031;-81
2022/06/29 08:32:16;;;;;;;6.72;1.65;;;;;;;;;;5053823;28;20037;-80
2022/06/29 08:34:41;;;;;;;8.13;1.70;;;;;;;;;;5070767;28;20123;-81
2022/06/29 08:37:07;;;;;;;5.60;1.77;;;;;;;;;;5038313;28;20395;-80
2022/06/29 08:39:32;;;;;;;4.20;1.98;;;;;;;;;;5052937;28;20008;-80
2022/06/29 08:42:00;;;;;;;6.93;1.88;;;;;;;;;;5054166;28;20428;-80
2022/06/29 08:44:26;;;;;;;2.83;1.70;;;;;;;;;;5026384;28;20026;-80
2022/06/29 08:46:51;;;;;;;5.57;2.00;;;;;;;;;;5005819;28;20468;-81
2022/06/29 08:49:16;;;;;;;8.82;2.22;;;;;;;;;;5049811;28;20017;-80
2022/06/29 08:51:42;;;;;;;7.03;1.85;;;;;;;;;;5050610;28;20044;-80
2022/06/29 08:54:07;;;;;;;2.38;1.40;;;;;;;;;;5050197;28;20028;-80
2022/06/29 08:56:33;;;;;;;6.68;1.85;;;;;;;;;;5031835;28;20116;-79
2022/06/29 08:59:00;;;;;;;3.60;1.65;;;;;;;;;;5052535;28;20047;-80
2022/06/29 09:01:26;;;;;;;6.40;1.90;;;;;;;;;;5071149;28;20040;-80
2022/06/29 09:03:52;;;;;;;3.55;1.40;;;;;;;;;;5036587;28;20560;-79
2022/06/29 09:06:17;;;;;;;5.28;1.77;;;;;;;;;;5035989;28;20114;-80
2022/06/29 09:08:42;;;;;;;3.47;1.67;;;;;;;;;;5052921;28;20056;-79
2022/06/29 09:11:34;;;;;;;3.55;1.50;;;;;;;;;;5070474;28;20109;-79
2022/06/29 09:14:19;;;;;;;2.95;1.60;;;;;;;;;;5069069;28;20044;-79
2022/06/29 09:16:58;;;;;;;4.00;1.90;;;;;;;;;;5036826;28;20119;-80
2022/06/29 09:19:36;;;;;;;10.13;1.90;;;;;;;;;;5052429;28;20078;-80
2022/06/29 09:22:02;;;;;;;4.72;1.60;;;;;;;;;;5040370;28;20510;-80
2022/06/29 09:24:29;;;;;;;5.72;1.80;;;;;;;;;;5070468;28;20029;-80
2022/06/29 09:26:57;;;;;;;5.70;1.35;;;;;;;;;;5068336;28;20032;-79
2022/06/29 09:29:27;;;;;;;2.22;1.20;;;;;;;;;;5070630;28;20033;-79
2022/06/29 09:32:01;;;;;;;6.88;1.70;;;;;;;;;;5051181;28;20077;-79
2022/06/29 09:34:26;;;;;;;5.30;1.25;;;;;;;;;;5068245;28;20069;-79
2022/06/29 09:36:55;;;;;;;3.80;1.48;;;;;;;;;;5053622;28;20137;-80
2022/06/29 09:39:37;;;;;;;3.38;1.45;;;;;;;;;;5053918;28;20583;-80
2022/06/29 09:42:07;;;;;;;4.15;1.75;;;;;;;;;;5052304;28;20039;-80
2022/06/29 09:44:32;;;;;;;5.70;1.40;;;;;;;;;;5019445;28;20032;-80
2022/06/29 09:46:57;;;;;;;4.15;1.50;;;;;;;;;;5069497;28;20484;-80
2022/06/29 09:49:25;;;;;;;6.43;1.73;;;;;;;;;;5051755;28;20025;-80
2022/06/29 09:51:53;;;;;;;3.00;1.60;;;;;;;;;;5035885;28;20044;-80
2022/06/29 09:54:18;;;;;;;3.85;1.80;;;;;;;;;;5050914;28;20036;-80
2022/06/29 09:56:50;;;;;;;9.73;1.75;;;;;;;;;;5052529;28;20059;-80
2022/06/29 10:02:34;;;;;;;4.90;1.70;;;;;;;;;;5069886;28;20038;-80
2022/06/29 10:05:19;;;;;;;4.65;1.50;;;;;;;;;;5068755;28;20043;-80
2022/06/29 10:07:46;;;;;;;4.95;1.80;;;;;;;;;;5070823;28;20013;-81
2022/06/29 10:10:16;;;;;;;5.03;1.77;;;;;;;;;;5034600;28;20055;-79
2022/06/29 10:15:56;;;;;;;4.28;1.98;;;;;;;;;;5051583;28;20087;-80
2022/06/29 10:18:43;;;;;;;6.18;1.70;;;;;;;;;;5049786;28;20056;-79
2022/06/29 10:21:17;;;;;;;4.85;1.98;;;;;;;;;;5030361;28;20029;-80
2022/06/29 10:24:06;;;;;;;6.57;1.60;;;;;;;;;;5030803;28;20025;-81
2022/06/29 10:26:32;;;;;;;6.53;2.10;;;;;;;;;;5070123;28;20039;-79
2022/06/29 10:29:09;;;;;;;3.25;1.85;;;;;;;;;;5067758;28;20032;-80
2022/06/29 10:31:50;;;;;;;5.30;1.70;;;;;;;;;;5068822;28;20012;-80
2022/06/29 10:34:31;;;;;;;6.05;2.10;;;;;;;;;;5067183;28;20043;-80
2022/06/29 10:37:03;;;;;;;3.60;1.67;;;;;;;;;;5066428;28;20503;-80
2022/06/29 10:39:55;;;;;;;4.93;1.90;;;;;;;;;;5067429;28;20076;-80
2022/06/29 10:45:06;;;;;;;4.38;1.80;;;;;;;;;;5060904;28;20593;-80
2022/06/29 10:47:32;;;;;;;4.43;1.77;;;;;;;;;;5051641;28;20032;-80
2022/06/29 10:52:42;;;;;;;8.13;2.03;;;;;;;;;;5068295;28;20028;-80
2022/06/29 10:55:08;;;;;;;5.10;2.20;;;;;;;;;;5033615;28;20036;-80
2022/06/29 10:57:33;;;;;;;4.32;2.25;;;;;;;;;;5031762;28;20068;-80
2022/06/29 10:59:59;;;;;;;4.72;2.22;;;;;;;;;;5050866;28;20046;-80
2022/06/29 11:02:25;;;;;;;7.43;2.22;;;;;;;;;;5068269;28;20500;-80
2022/06/29 11:04:51;;;;;;;5.53;2.08;;;;;;;;;;5066929;28;20104;-80
2022/06/29 11:12:51;;;;;;;4.78;2.10;;;;;;;;;;5058491;28;20509;-81
2022/06/29 11:15:41;;;;;;;6.00;2.40;;;;;;;;;;5016758;28;20031;-81
2022/06/29 11:18:07;;;;;;;6.10;2.45;;;;;;;;;;5052200;28;20101;-81
2022/06/29 11:20:33;;;;;;;5.38;2.47;;;;;;;;;;5050340;28;20096;-81
2022/06/29 11:22:58;;;;;;;12.32;2.83;;;;;;;;;;5047771;28;20097;-81
2022/06/29 11:25:24;;;;;;;7.28;2.63;;;;;;;;;;5067350;28;20103;-81
2022/06/29 11:27:50;;;;;;;7.35;2.45;;;;;;;;;;5049405;28;20035;-81
2022/06/29 11:30:22;;;;;;;3.88;2.20;;;;;;;;;;5068839;28;20032;-80
2022/06/29 11:32:48;;;;;;;5.60;2.95;;;;;;;;;;5066808;28;20038;-80
2022/06/29 11:35:15;;;;;;;3.83;2.13;;;;;;;;;;5050362;28;20340;-80
2022/06/29 11:38:01;;;;;;;5.25;2.00;;;;;;;;;;5050058;28;20469;-80
2022/06/29 11:40:37;;;;;;;3.88;2.15;;;;;;;;;;5049771;28;20021;-79
2022/06/29 11:43:09;;;;;;;3.47;1.90;;;;;;;;;;5049905;28;20028;-80
2022/06/29 11:45:44;;;;;;;;;;;;;;;;;;5051528;28;20031;-80
2022/06/29 11:48:19;;;;;;;6.47;2.20;;;;;;;;;;5047129;28;20317;-79
2022/06/29 11:50:49;;;;;;;4.88;2.00;;;;;;;;;;5049743;28;20552;-79
2022/06/29 11:53:49;;;;;;;5.25;2.13;;;;;;;;;;5033164;28;20076;-80
2022/06/29 11:56:16;;;;;;;7.80;2.35;;;;;;;;;;5044410;28;20060;-80
2022/06/29 11:58:44;;;;;;;4.90;2.30;;;;;;;;;;5016104;28;20036;-80
2022/06/29 12:01:10;;;;;;;7.68;2.45;;;;;;;;;;5031464;28;20312;-81
2022/06/29 12:03:36;;;;;;;3.78;2.20;;;;;;;;;;5013450;28;20057;-81
2022/06/29 12:06:02;;;;;;;5.68;2.35;;;;;;;;;;5028515;28;20045;-80
2022/06/29 12:08:29;;;;;;;4.93;2.03;;;;;;;;;;4980918;28;20045;-80
2022/06/29 12:10:55;;;;;;;4.72;2.10;;;;;;;;;;5013078;28;20430;-80
2022/06/29 12:13:21;;;;;;;4.18;1.90;;;;;;;;;;5029500;28;20118;-80
2022/06/29 12:15:46;;;;;;;8.23;2.17;;;;;;;;;;5029523;28;20056;-80
2022/06/29 12:18:13;;;;;;;3.08;1.40;;;;;;;;;;5029613;28;20045;-80
2022/06/29 12:20:38;;;;;;;3.58;1.98;;;;;;;;;;5044904;28;20465;-80
2022/06/29 12:23:04;;;;;;;7.85;1.70;;;;;;;;;;5045737;28;20102;-80
2022/06/29 12:25:29;;;;;;;3.60;1.65;;;;;;;;;;5045712;28;20362;-81
2022/06/29 12:27:55;;;;;;;5.15;1.73;;;;;;;;;;5054189;28;20056;-80
2022/06/29 12:30:20;;;;;;;4.47;1.98;;;;;;;;;;4999772;28;20069;-80
2022/06/29 12:32:45;;;;;;;4.65;2.00;;;;;;;;;;5068347;28;20068;-80
2022/06/29 12:35:11;;;;;;;4.85;2.30;;;;;;;;;;5047851;28;20122;-80
2022/06/29 12:37:36;;;;;;;4.95;2.30;;;;;;;;;;5066326;28;20036;-80
2022/06/29 12:40:02;;;;;;;2.95;1.50;;;;;;;;;;5049567;28;20112;-81
2022/06/29 12:42:28;;;;;;;4.07;1.88;;;;;;;;;;5034729;28;20029;-80
2022/06/29 12:44:53;;;;;;;3.28;1.58;;;;;;;;;;5049189;28;20025;-81
2022/06/29 12:47:18;;;;;;;5.72;2.03;;;;;;;;;;5066805;28;20057;-81
2022/06/29 12:49:44;;;;;;;4.90;1.67;;;;;;;;;;5069376;28;20104;-81
2022/06/29 12:52:09;;;;;;;8.40;1.88;;;;;;;;;;5067660;28;20473;-81
2022/06/29 12:54:37;;;;;;;4.65;2.10;;;;;;;;;;5020525;28;20047;-80
2022/06/29 12:57:03;;;;;;;4.60;2.53;;;;;;;;;;5053785;28;20110;-81
2022/06/29 12:59:28;;;;;;;5.63;2.00;;;;;;;;;;5070112;28;20072;-81
2022/06/29 13:01:54;;;;;;;3.15;1.52;;;;;;;;;;5037058;28;20009;-81
2022/06/29 13:04:19;;;;;;;6.40;1.90;;;;;;;;;;5037786;28;20059;-80
2022/06/29 13:06:45;;;;;;;3.28;1.70;;;;;;;;;;5019563;28;20067;-82
2022/06/29 13:09:10;;;;;;;3.08;1.70;;;;;;;;;;5053669;28;20108;-81
2022/06/29 13:11:36;;;;;;;6.70;1.55;;;;;;;;;;5020006;28;20044;-82
2022/06/29 13:14:01;;;;;;;2.17;1.30;;;;;;;;;;5070484;28;20043;-81
2022/06/29 13:16:27;;;;;;;2.03;1.20;;;;;;;;;;5071630;28;20055;-80
2022/06/29 13:18:53;;;;;;;5.22;1.77;;;;;;;;;;5054669;28;20454;-81
2022/06/29 13:21:18;;;;;;;6.68;1.80;;;;;;;;;;5069924;28;20112;-79
2022/06/29 13:23:44;;;;;;;5.15;2.10;;;;;;;;;;5069593;28;20111;-80
2022/06/29 13:26:09;;;;;;;3.75;1.73;;;;;;;;;;5053714;28;20070;-81
2022/06/29 13:28:38;;;;;;;5.95;1.70;;;;;;;;;;5037853;28;20115;-80
2022/06/29 13:31:03;;;;;;;1.92;0.90;;;;;;;;;;5070195;28;20032;-80
2022/06/29 13:33:29;;;;;;;3.20;1.33;;;;;;;;;;5053767;28;20078;-80
2022/06/29 13:35:54;;;;;;;2.72;1.27;;;;;;;;;;5055147;28;20046;-80
2022/06/29 13:38:20;;;;;;;5.53;1.42;;;;;;;;;;5070641;28;20107;-80
2022/06/29 13:40:45;;;;;;;3.80;1.67;;;;;;;;;;5052394;28;20117;-81
2022/06/29 13:43:11;;;;;;;7.63;1.80;;;;;;;;;;5071605;28;20048;-82
2022/06/29 13:45:36;;;;;;;7.35;1.80;;;;;;;;;;5054056;28;20031;-81
2022/06/29 13:48:02;;;;;;;4.85;1.30;;;;;;;;;;5053310;28;20059;-80
2022/06/29 13:50:27;;;;;;;5.07;1.60;;;;;;;;;;5054213;28;20056;-81
2022/06/29 13:52:52;;;;;;;3.35;1.85;;;;;;;;;;5037012;28;20476;-81
2022/06/29 13:55:18;;;;;;;2.85;1.38;;;;;;;;;;5052175;28;20074;-81
2022/06/29 13:57:43;;;;;;;6.00;1.60;;;;;;;;;;5019642;28;20389;-80
2022/06/29 14:00:09;;;;;;;2.42;1.25;;;;;;;;;;5070447;28;20514;-81
2022/06/29 14:02:34;;;;;;;3.95;1.20;;;;;;;;;;5001604;28;20039;-80
2022/06/29 14:05:01;;;;;;;2.67;1.17;;;;;;;;;;5053999;28;20052;-81
2022/06/29 14:07:27;;;;;;;2.22;0.95;;;;;;;;;;5036709;28;20384;-80
2022/06/29 14:09:52;;;;;;;2.65;1.35;;;;;;;;;;5018140;28;20384;-80
2022/06/29 14:12:18;;;;;;;3.42;1.52;;;;;;;;;;5053138;28;20082;-81
2022/06/29 14:14:44;;;;;;;3.25;1.50;;;;;;;;;;5019973;28;20029;-82
2022/06/29 14:17:10;;;;;;;4.38;1.50;;;;;;;;;;5053059;28;20036;-81
2022/06/29 14:19:36;;;;;;;3.47;1.33;;;;;;;;;;5053265;28;20024;-81
2022/06/29 14:22:02;;;;;;;6.22;1.50;;;;;;;;;;5069239;28;20036;-81
2022/06/29 14:24:29;;;;;;;6.75;1.75;;;;;;;;;;5070185;28;20029;-81
2022/06/29 14:26:55;;;;;;;3.53;1.50;;;;;;;;;;5068172;28;20047;-82
2022/06/29 14:29:22;;;;;;;3.70;1.38;;;;;;;;;;5035212;28;20016;-81
2022/06/29 14:31:47;;;;;;;3.03;1.15;;;;;;;;;;5036467;28;20044;-80
2022/06/29 14:34:13;;;;;;;3.72;1.60;;;;;;;;;;5036108;28;20028;-80
2022/06/29 14:36:38;;;;;;;4.40;1.35;;;;;;;;;;5066922;28;20051;-80
2022/06/29 14:39:03;;;;;;;6.72;1.40;;;;;;;;;;5068766;28;20036;-81
2022/06/29 14:41:29;;;;;;;3.50;1.30;;;;;;;;;;5069848;28;20508;-80
2022/06/29 14:43:55;;;;;;;4.70;1.33;;;;;;;;;;5052365;28;20029;-80
2022/06/29 14:46:21;;;;;;;3.63;1.50;;;;;;;;;;5069402;28;20031;-80
2022/06/29 14:48:46;;;;;;;4.15;1.50;;;;;;;;;;5052586;28;20021;-80
2022/06/29 14:51:13;;;;;;;6.35;1.75;;;;;;;;;;5068092;28;20104;-82
2022/06/29 14:53:39;;;;;;;6.63;1.58;;;;;;;;;;5068954;28;20178;-80
2022/06/29 14:56:04;;;;;;;7.13;1.55;;;;;;;;;;5036408;28;20056;-80
2022/06/29 14:58:29;;;;;;;3.85;1.42;;;;;;;;;;5070062;28;20111;-79
2022/06/29 15:00:55;;;;;;;4.40;1.80;;;;;;;;;;5051522;28;20060;-80
2022/06/29 15:03:20;;;;;;;3.97;1.48;;;;;;;;;;5052872;28;20469;-80
2022/06/29 15:05:46;;;;;;;7.05;1.67;;;;;;;;;;5017593;28;20028;-80